Sopelana, Spain
Current Conditions -  °F | °C
As of 9:30 PM on Saturday 25 Oct 2014 (Local Time) from LEBB Reporting Station
Few Clouds Few Clouds  
Wind Chill: 16°   Ceiling: Unl
Heat Index: 16°   Visibility: 4mi
Dew Point: 14°   Wind: 2mph
Humidity: 88%   Direction: NA
Pressure: 30.18"   Gusts: NA
Location:  43.38°N, 2.98°W
Report Text: LEBB 251930Z VRB02KT 6000 FEW010 16/14 Q1022 NOSIG
Loading
Personal Weather Stations






























Interactive Weather Map
Tropical Storm Tracking
New forecast layout! Learn more

10-Day Weather Forecast

Advertisements
Track Severe Weather on mobile